createdAt,value
2018-03-21T00:00:21.441Z,3.43
2018-03-21T00:02:53.066Z,3.60
2018-03-21T00:05:22.643Z,3.70
2018-03-21T00:07:52.256Z,4.30
2018-03-21T00:10:27.829Z,3.83
2018-03-21T00:12:57.382Z,3.37
2018-03-21T00:15:26.859Z,4.00
2018-03-21T00:17:56.390Z,4.67
2018-03-21T00:20:25.897Z,4.50
2018-03-21T00:22:55.430Z,4.03
2018-03-21T00:25:24.921Z,4.50
2018-03-21T00:27:58.193Z,4.23
2018-03-21T00:30:27.768Z,4.23
2018-03-21T00:32:57.353Z,4.40
2018-03-21T00:35:26.849Z,3.30
2018-03-21T00:37:56.323Z,4.13
2018-03-21T00:40:25.855Z,4.03
2018-03-21T00:42:55.366Z,4.40
2018-03-21T00:45:25.563Z,5.10
2018-03-21T00:47:55.553Z,5.17
2018-03-21T00:50:25.048Z,4.30
2018-03-21T00:52:54.571Z,5.17
2018-03-21T00:55:24.111Z,4.60
2018-03-21T00:57:53.628Z,5.40
2018-03-21T01:00:23.214Z,4.60
2018-03-21T01:02:52.745Z,4.80
2018-03-21T01:05:22.451Z,4.83
2018-03-21T01:07:52.075Z,4.97
2018-03-21T01:10:23.409Z,5.23
2018-03-21T01:12:52.947Z,4.73
2018-03-21T01:15:22.541Z,4.87
2018-03-21T01:17:52.056Z,5.00
2018-03-21T01:20:21.582Z,5.90
2018-03-21T01:22:51.123Z,4.77
2018-03-21T01:25:22.173Z,4.40
2018-03-21T01:27:51.735Z,5.13
2018-03-21T01:30:28.367Z,5.13
2018-03-21T01:32:57.863Z,5.10
2018-03-21T01:35:27.682Z,4.77
2018-03-21T01:37:57.301Z,5.40
2018-03-21T01:40:26.840Z,5.20
2018-03-21T01:42:56.425Z,5.87
2018-03-21T01:45:25.961Z,5.83
2018-03-21T01:47:55.526Z,5.77
2018-03-21T01:50:25.094Z,4.93
2018-03-21T01:53:00.550Z,4.90
2018-03-21T01:55:30.075Z,6.10
2018-03-21T01:57:59.599Z,5.10
2018-03-21T02:00:29.078Z,4.97
2018-03-21T02:02:58.830Z,4.73
2018-03-21T02:05:28.866Z,5.80
2018-03-21T02:07:58.662Z,6.47
2018-03-21T02:10:35.620Z,6.03
2018-03-21T02:13:05.215Z,4.73
2018-03-21T02:15:34.828Z,6.13
2018-03-21T02:18:04.425Z,5.70
2018-03-21T02:20:33.928Z,5.67
2018-03-21T02:23:03.651Z,6.47
2018-03-21T02:25:33.229Z,6.20
2018-03-21T02:28:02.867Z,5.10
2018-03-21T02:30:32.369Z,5.37
2018-03-21T02:33:01.889Z,5.13
2018-03-21T02:35:37.447Z,5.30
2018-03-21T02:38:07.077Z,4.93
2018-03-21T02:40:46.185Z,5.90
2018-03-21T02:43:15.865Z,4.70
2018-03-21T02:45:45.484Z,5.60
2018-03-21T02:48:18.700Z,5.10
2018-03-21T02:50:48.377Z,5.20
2018-03-21T02:53:18.002Z,5.67
2018-03-21T02:56:01.700Z,4.77
2018-03-21T02:58:31.274Z,5.70
2018-03-21T03:01:00.818Z,4.83
2018-03-21T03:03:30.539Z,5.57
2018-03-21T03:06:03.449Z,5.30
2018-03-21T03:08:33.131Z,5.50
2018-03-21T03:11:03.182Z,4.50
2018-03-21T03:13:32.991Z,4.80
2018-03-21T03:16:02.578Z,3.93
2018-03-21T03:18:33.404Z,4.50
2018-03-21T03:21:02.937Z,3.93
2018-03-21T03:23:32.622Z,4.67
2018-03-21T03:26:02.216Z,5.37
2018-03-21T03:28:31.846Z,5.17
2018-03-21T03:31:14.979Z,5.57
2018-03-21T03:33:44.571Z,4.53
2018-03-21T03:36:14.207Z,5.47
2018-03-21T03:38:43.706Z,5.00
2018-03-21T03:41:14.766Z,4.33
2018-03-21T03:43:44.578Z,4.87
2018-03-21T03:46:14.182Z,5.73
2018-03-21T03:48:43.743Z,4.90
2018-03-21T03:51:19.446Z,5.20
2018-03-21T03:53:49.108Z,4.80
2018-03-21T03:56:18.638Z,5.10
2018-03-21T03:58:48.181Z,4.73
2018-03-21T04:01:17.745Z,5.50
2018-03-21T04:03:47.246Z,5.00
2018-03-21T04:06:16.810Z,4.70
2018-03-21T04:08:46.307Z,5.13
2018-03-21T04:11:23.573Z,4.70
2018-03-21T04:13:53.086Z,5.10
2018-03-21T04:16:22.618Z,4.70
2018-03-21T04:18:52.162Z,4.60
2018-03-21T04:21:21.677Z,4.50
2018-03-21T04:23:51.185Z,4.53
2018-03-21T04:26:20.731Z,5.77
2018-03-21T04:28:50.240Z,4.53
2018-03-21T04:31:19.817Z,4.97
2018-03-21T04:33:49.312Z,4.07
2018-03-21T04:36:18.804Z,4.20
2018-03-21T04:38:56.935Z,5.27
2018-03-21T04:41:26.478Z,4.60
2018-03-21T04:43:56.011Z,4.40
2018-03-21T04:46:25.604Z,4.77
2018-03-21T04:48:56.157Z,4.90
2018-03-21T04:51:28.994Z,4.40
2018-03-21T04:53:58.585Z,4.33
2018-03-21T04:56:28.101Z,4.87
2018-03-21T04:58:57.694Z,4.80
2018-03-21T05:01:27.256Z,5.00
2018-03-21T05:03:56.807Z,4.87
2018-03-21T05:06:26.352Z,6.33
2018-03-21T05:08:55.898Z,5.20
2018-03-21T05:11:25.537Z,4.20
2018-03-21T05:13:55.327Z,4.73
2018-03-21T05:16:24.925Z,5.03
2018-03-21T05:18:54.446Z,5.37
2018-03-21T05:21:23.947Z,5.73
2018-03-21T05:23:53.515Z,5.30
2018-03-21T05:26:23.051Z,4.23
2018-03-21T05:28:53.042Z,5.70
2018-03-21T05:31:22.548Z,4.00
2018-03-21T05:33:52.095Z,4.33
2018-03-21T05:36:21.663Z,5.50
2018-03-21T05:38:51.226Z,5.67
2018-03-21T05:41:20.752Z,5.37
2018-03-21T05:43:50.791Z,5.20
2018-03-21T05:46:20.362Z,4.43
2018-03-21T05:48:50.585Z,4.43
2018-03-21T05:51:20.179Z,4.57
2018-03-21T05:53:50.076Z,4.87
2018-03-21T05:56:19.602Z,4.97
2018-03-21T05:58:49.122Z,4.40
2018-03-21T06:01:18.675Z,4.53
2018-03-21T06:03:48.239Z,4.97
2018-03-21T06:06:17.788Z,4.00
2018-03-21T06:08:59.532Z,4.47
2018-03-21T06:11:29.079Z,3.87
2018-03-21T06:13:58.820Z,4.70
2018-03-21T06:16:28.420Z,5.20
2018-03-21T06:19:06.711Z,3.87
2018-03-21T06:21:36.260Z,4.27
2018-03-21T06:24:05.910Z,4.07
2018-03-21T06:26:35.767Z,3.93
2018-03-21T06:29:05.284Z,4.43
2018-03-21T06:31:35.077Z,4.57
2018-03-21T06:34:04.738Z,4.60
2018-03-21T06:36:34.288Z,4.83
2018-03-21T06:39:03.912Z,4.47
2018-03-21T06:41:33.492Z,4.27
2018-03-21T06:44:03.088Z,4.57
2018-03-21T06:46:32.696Z,4.80
2018-03-21T06:49:03.062Z,4.67
2018-03-21T06:51:32.584Z,5.87
2018-03-21T06:54:02.152Z,5.27
2018-03-21T06:56:38.632Z,5.80
2018-03-21T06:59:08.204Z,4.57
2018-03-21T07:01:37.779Z,4.60
2018-03-21T07:04:07.341Z,5.50
2018-03-21T07:06:36.844Z,5.43
2018-03-21T07:09:06.759Z,4.50
2018-03-21T07:11:36.245Z,4.50
2018-03-21T07:14:12.004Z,5.40
2018-03-21T07:16:43.618Z,4.60
2018-03-21T07:19:13.204Z,3.87
2018-03-21T07:21:42.812Z,4.60
2018-03-21T07:24:12.343Z,4.23
2018-03-21T07:26:48.379Z,4.20
2018-03-21T07:29:18.159Z,3.63
2018-03-21T07:31:47.795Z,4.23
2018-03-21T07:34:17.360Z,5.77
2018-03-21T07:36:47.171Z,4.60
2018-03-21T07:39:16.732Z,3.80
2018-03-21T07:41:46.258Z,3.77
2018-03-21T07:44:16.171Z,4.67
2018-03-21T07:46:47.112Z,3.50
2018-03-21T07:49:16.679Z,3.23
2018-03-21T07:51:46.269Z,2.53
2018-03-21T07:54:15.843Z,4.00
2018-03-21T07:56:45.374Z,2.90
2018-03-21T07:59:14.914Z,2.83
2018-03-21T08:01:44.419Z,3.50
2018-03-21T08:04:13.999Z,2.60
2018-03-21T08:06:43.576Z,4.83
2018-03-21T08:09:13.088Z,3.37
2018-03-21T08:11:42.616Z,3.10
2018-03-21T08:14:12.227Z,2.90
2018-03-21T08:16:41.795Z,2.70
2018-03-21T08:19:11.923Z,3.40
2018-03-21T08:21:41.477Z,2.70
2018-03-21T08:24:11.070Z,3.37
2018-03-21T08:26:40.910Z,3.40
2018-03-21T08:29:10.739Z,2.10
2018-03-21T08:31:47.632Z,3.93
2018-03-21T08:34:17.176Z,3.33
2018-03-21T08:36:46.968Z,3.13
2018-03-21T08:39:16.534Z,3.10
2018-03-21T08:41:46.091Z,4.23
2018-03-21T08:44:19.476Z,4.00
2018-03-21T08:46:55.276Z,5.17
2018-03-21T08:49:24.795Z,3.77
2018-03-21T08:51:54.482Z,3.30
2018-03-21T08:54:24.535Z,4.23
2018-03-21T08:56:54.097Z,4.00
2018-03-21T08:59:23.651Z,4.10
2018-03-21T09:01:55.494Z,4.17
2018-03-21T09:04:24.987Z,4.80
2018-03-21T09:06:54.962Z,3.97
2018-03-21T09:09:25.288Z,4.63
2018-03-21T09:11:54.855Z,3.57
2018-03-21T09:14:24.355Z,4.43
2018-03-21T09:16:53.894Z,3.90
2018-03-21T09:19:23.477Z,3.90
2018-03-21T09:21:53.023Z,3.93
2018-03-21T09:24:22.570Z,2.73
2018-03-21T09:27:04.287Z,4.63
2018-03-21T09:29:33.854Z,3.97
2018-03-21T09:32:03.451Z,3.87
2018-03-21T09:34:33.017Z,3.70
2018-03-21T09:37:02.592Z,3.20
2018-03-21T09:39:32.082Z,3.00
2018-03-21T09:42:01.625Z,3.30
2018-03-21T09:44:31.159Z,3.20
2018-03-21T09:47:00.770Z,3.67
2018-03-21T09:49:30.337Z,4.50
2018-03-21T09:51:59.918Z,3.73
2018-03-21T09:54:32.073Z,3.63
2018-03-21T09:57:02.235Z,2.90
2018-03-21T09:59:31.894Z,4.17
2018-03-21T10:02:04.677Z,4.70
2018-03-21T10:04:34.261Z,3.10
2018-03-21T10:07:03.814Z,3.40
2018-03-21T10:09:39.526Z,4.00
2018-03-21T10:12:09.028Z,3.97
2018-03-21T10:14:38.617Z,3.50
2018-03-21T10:17:08.213Z,3.60
2018-03-21T10:19:38.170Z,3.77
2018-03-21T10:22:14.773Z,4.40
2018-03-21T10:24:44.347Z,3.93
2018-03-21T10:27:13.869Z,3.20
2018-03-21T10:29:43.431Z,3.20
2018-03-21T10:32:17.945Z,3.60
2018-03-21T10:34:47.520Z,3.43
2018-03-21T10:37:17.128Z,3.83
2018-03-21T10:39:47.766Z,3.70
2018-03-21T10:42:17.255Z,3.57
2018-03-21T10:44:46.794Z,3.30
2018-03-21T10:47:16.295Z,5.90
2018-03-21T10:49:45.800Z,3.20
2018-03-21T10:52:15.319Z,3.33
2018-03-21T10:54:51.047Z,4.20
2018-03-21T10:57:20.595Z,3.20
2018-03-21T10:59:50.201Z,3.00
2018-03-21T11:02:19.891Z,3.40
2018-03-21T11:04:49.421Z,3.30
2018-03-21T11:07:18.973Z,3.40
2018-03-21T11:09:48.662Z,3.93
2018-03-21T11:12:18.321Z,5.33
2018-03-21T11:14:47.846Z,3.00
2018-03-21T11:17:17.479Z,4.20
2018-03-21T11:19:47.000Z,4.00
2018-03-21T11:22:16.551Z,5.00
2018-03-21T11:24:46.161Z,3.60
2018-03-21T11:27:21.897Z,4.10
2018-03-21T11:29:53.588Z,3.57
2018-03-21T11:35:02.497Z,3.27
2018-03-21T11:37:32.042Z,3.07
2018-03-21T11:40:01.552Z,3.20
2018-03-21T11:42:31.047Z,3.60
2018-03-21T11:45:01.285Z,3.20
2018-03-21T11:47:44.112Z,2.93
2018-03-21T11:50:14.566Z,3.10
2018-03-21T11:52:44.134Z,3.33
2018-03-21T11:55:13.708Z,2.83
2018-03-21T11:57:46.333Z,3.20
2018-03-21T12:00:15.947Z,2.50
2018-03-21T12:02:45.511Z,3.10
2018-03-21T12:05:15.071Z,3.47
2018-03-21T12:07:44.622Z,3.27
2018-03-21T12:10:27.923Z,3.40
2018-03-21T12:12:57.478Z,3.37
2018-03-21T12:15:27.004Z,2.60
2018-03-21T12:17:56.591Z,2.90
2018-03-21T12:20:26.126Z,3.50
2018-03-21T12:22:55.623Z,3.30
2018-03-21T12:25:25.181Z,2.90
2018-03-21T12:27:54.688Z,2.53
2018-03-21T12:30:24.252Z,2.83
2018-03-21T12:32:53.946Z,3.30
2018-03-21T12:35:23.514Z,3.20
2018-03-21T12:37:53.147Z,3.10
2018-03-21T12:40:28.830Z,3.07
2018-03-21T12:42:58.407Z,4.53
2018-03-21T12:45:27.941Z,3.33
2018-03-21T12:47:57.508Z,3.13
2018-03-21T12:50:27.090Z,3.00
2018-03-21T12:52:56.603Z,3.00
2018-03-21T12:55:26.101Z,3.87
2018-03-21T12:57:55.671Z,3.13
2018-03-21T13:00:25.228Z,3.97
2018-03-21T13:02:54.844Z,2.67
2018-03-21T13:05:24.354Z,3.20
2018-03-21T13:07:53.903Z,2.67
2018-03-21T13:10:23.452Z,3.13
2018-03-21T13:12:52.964Z,2.77
2018-03-21T13:15:22.522Z,2.90
2018-03-21T13:17:52.116Z,3.03
2018-03-21T13:20:22.050Z,3.30
2018-03-21T13:22:51.594Z,2.90
2018-03-21T13:25:21.163Z,2.77
2018-03-21T13:27:50.738Z,2.80
2018-03-21T13:30:20.266Z,2.67
2018-03-21T13:32:50.047Z,2.90
2018-03-21T13:35:19.619Z,3.20
2018-03-21T13:37:49.147Z,2.90
2018-03-21T13:40:18.701Z,2.10
2018-03-21T13:42:48.214Z,3.00
2018-03-21T13:45:17.745Z,2.90
2018-03-21T13:47:47.645Z,3.00
2018-03-21T13:50:17.249Z,2.50
2018-03-21T13:52:50.064Z,3.30
2018-03-21T13:55:19.768Z,3.43
2018-03-21T13:57:49.353Z,3.33
2018-03-21T14:00:19.151Z,2.97
2018-03-21T14:02:50.512Z,3.23
2018-03-21T14:05:22.071Z,3.40
2018-03-21T14:07:51.587Z,3.77
2018-03-21T14:10:21.125Z,3.53
2018-03-21T14:12:50.687Z,3.60
2018-03-21T14:15:20.235Z,3.13
2018-03-21T14:17:49.801Z,4.13
2018-03-21T14:20:19.889Z,3.53
2018-03-21T14:22:49.863Z,3.90
2018-03-21T14:25:20.381Z,5.00
2018-03-21T14:27:56.224Z,3.53
2018-03-21T14:30:25.780Z,3.70
2018-03-21T14:32:55.327Z,3.50
2018-03-21T14:35:38.196Z,3.80
2018-03-21T14:38:07.779Z,4.60
2018-03-21T14:40:37.647Z,4.20
2018-03-21T14:43:07.234Z,3.73
2018-03-21T14:45:36.784Z,3.77
2018-03-21T14:48:06.356Z,3.90
2018-03-21T14:50:36.015Z,3.50
2018-03-21T14:53:05.578Z,3.60
2018-03-21T14:55:35.118Z,5.70
2018-03-21T14:58:04.634Z,4.50
2018-03-21T15:00:40.558Z,4.27
2018-03-21T15:03:10.156Z,5.20
2018-03-21T15:05:39.854Z,3.40
2018-03-21T15:08:09.691Z,3.47
2018-03-21T15:10:39.206Z,3.77
2018-03-21T15:13:17.498Z,3.73
2018-03-21T15:15:47.689Z,4.67
2018-03-21T15:18:17.233Z,2.93
2018-03-21T15:20:46.735Z,3.87
2018-03-21T15:23:16.677Z,4.10
2018-03-21T15:25:46.358Z,3.90
2018-03-21T15:28:16.015Z,3.00
2018-03-21T15:30:45.554Z,3.10
2018-03-21T15:33:15.128Z,4.63
2018-03-21T15:35:44.663Z,4.00
2018-03-21T15:38:14.386Z,3.10
2018-03-21T15:40:44.360Z,3.13
2018-03-21T15:43:15.814Z,3.60
2018-03-21T15:45:45.744Z,3.60
2018-03-21T15:48:15.312Z,4.73
2018-03-21T15:50:44.883Z,2.93
2018-03-21T15:53:14.595Z,3.80
2018-03-21T15:55:44.127Z,3.93
2018-03-21T15:58:13.694Z,3.87
2018-03-21T16:00:43.265Z,4.00
2018-03-21T16:03:12.781Z,3.40
2018-03-21T16:05:42.570Z,3.80
2018-03-21T16:08:12.130Z,2.80
2018-03-21T16:10:41.651Z,3.50
2018-03-21T16:13:11.171Z,3.10
2018-03-21T16:15:40.773Z,3.80
2018-03-21T16:18:10.354Z,2.73
2018-03-21T16:20:39.912Z,3.43
2018-03-21T16:23:09.456Z,3.53
2018-03-21T16:25:39.042Z,3.53
2018-03-21T16:28:08.676Z,4.67
2018-03-21T16:30:38.181Z,3.00
2018-03-21T16:33:07.764Z,4.43
2018-03-21T16:35:37.324Z,3.50
2018-03-21T16:38:20.276Z,4.90
2018-03-21T16:40:49.865Z,4.30
2018-03-21T16:43:19.405Z,3.90
2018-03-21T16:45:48.964Z,3.70
2018-03-21T16:48:31.912Z,5.10
2018-03-21T16:51:01.462Z,4.07
2018-03-21T16:53:31.009Z,3.63
2018-03-21T16:56:06.651Z,3.00
2018-03-21T16:58:47.568Z,3.07
2018-03-21T17:01:24.494Z,3.37
2018-03-21T17:03:54.016Z,3.40
2018-03-21T17:06:30.095Z,3.93
2018-03-21T17:08:59.624Z,2.87
2018-03-21T17:11:29.145Z,3.23
2018-03-21T17:13:59.905Z,2.70
2018-03-21T17:16:32.943Z,3.83
2018-03-21T17:19:02.731Z,3.67
2018-03-21T17:21:32.284Z,4.00
2018-03-21T17:24:03.309Z,3.50
2018-03-21T17:26:38.924Z,3.67
2018-03-21T17:29:08.502Z,3.03
2018-03-21T17:31:38.059Z,2.83
2018-03-21T17:34:07.581Z,2.93
2018-03-21T17:36:37.180Z,2.80
2018-03-21T17:39:07.803Z,3.27
2018-03-21T17:41:37.390Z,3.30
2018-03-21T17:44:08.069Z,4.70
2018-03-21T17:46:38.623Z,3.70
2018-03-21T17:49:08.187Z,2.77
2018-03-21T17:51:37.895Z,5.70
2018-03-21T17:54:07.876Z,4.50
2018-03-21T17:56:37.446Z,2.37
2018-03-21T17:59:07.072Z,2.20
2018-03-21T18:01:36.622Z,2.77
2018-03-21T18:04:06.148Z,2.10
2018-03-21T18:06:36.295Z,6.17
2018-03-21T18:09:06.335Z,3.03
2018-03-21T18:11:36.344Z,4.90
2018-03-21T18:14:05.871Z,9.43
2018-03-21T18:16:35.427Z,5.67
2018-03-21T18:19:11.035Z,5.40
2018-03-21T18:21:40.625Z,4.23
2018-03-21T18:24:10.320Z,3.33
2018-03-21T18:26:39.844Z,2.97
2018-03-21T18:29:09.455Z,3.80
2018-03-21T18:31:46.143Z,3.53
2018-03-21T18:34:15.786Z,6.30
2018-03-21T18:36:45.374Z,4.90
2018-03-21T18:39:14.920Z,5.23
2018-03-21T18:41:44.482Z,3.70
2018-03-21T18:44:14.014Z,2.60
2018-03-21T18:46:43.559Z,2.70
2018-03-21T18:49:13.075Z,2.80
2018-03-21T18:51:42.724Z,2.40
2018-03-21T18:54:12.237Z,1.90
2018-03-21T18:56:50.098Z,2.60
2018-03-21T18:59:25.671Z,2.33
2018-03-21T19:01:55.227Z,2.00
2018-03-21T19:04:25.031Z,2.03
2018-03-21T19:06:54.869Z,2.20
2018-03-21T19:09:24.807Z,1.83
2018-03-21T19:11:54.379Z,2.80
2018-03-21T19:14:23.937Z,1.80
2018-03-21T19:16:53.468Z,2.17
2018-03-21T19:19:22.984Z,1.87
2018-03-21T19:21:52.476Z,1.80
2018-03-21T19:24:29.581Z,3.10
2018-03-21T19:26:59.493Z,2.50
2018-03-21T19:29:29.231Z,2.23
2018-03-21T19:31:59.491Z,1.90
2018-03-21T19:34:29.114Z,2.20
2018-03-21T19:36:59.287Z,2.37
2018-03-21T19:39:28.799Z,3.07
2018-03-21T19:41:58.470Z,5.10
2018-03-21T19:44:28.120Z,4.90
2018-03-21T19:46:57.721Z,3.83
2018-03-21T19:49:27.284Z,2.80
2018-03-21T19:51:57.062Z,2.30
2018-03-21T19:54:26.645Z,2.00
2018-03-21T19:56:56.199Z,2.30
2018-03-21T19:59:32.444Z,1.93
2018-03-21T20:02:02.163Z,2.30
2018-03-21T20:04:32.386Z,2.57
2018-03-21T20:07:14.786Z,2.03
2018-03-21T20:09:44.323Z,3.60
2018-03-21T20:12:14.108Z,4.00
2018-03-21T20:14:43.655Z,2.90
2018-03-21T20:17:13.210Z,3.70
2018-03-21T20:19:44.445Z,4.40
2018-03-21T20:22:13.995Z,3.70
2018-03-21T20:24:43.518Z,6.77
2018-03-21T20:27:13.065Z,5.53
2018-03-21T20:29:48.862Z,3.70
2018-03-21T20:32:24.464Z,5.73
2018-03-21T20:34:53.957Z,3.33
2018-03-21T20:37:23.579Z,3.13
2018-03-21T20:39:53.082Z,3.20
2018-03-21T20:42:22.878Z,4.50
2018-03-21T20:44:52.559Z,3.90
2018-03-21T20:47:23.056Z,2.77
2018-03-21T20:49:52.582Z,3.40
2018-03-21T20:52:22.119Z,2.50
2018-03-21T20:54:51.772Z,3.00
2018-03-21T20:57:21.296Z,2.57
2018-03-21T20:59:51.008Z,3.03
2018-03-21T21:02:20.538Z,3.57
2018-03-21T21:04:50.255Z,2.53
2018-03-21T21:07:20.035Z,2.93
2018-03-21T21:09:49.835Z,2.80
2018-03-21T21:12:25.674Z,2.80
2018-03-21T21:14:55.227Z,2.70
2018-03-21T21:17:24.795Z,3.20
2018-03-21T21:19:54.327Z,2.97
2018-03-21T21:22:25.526Z,3.20
2018-03-21T21:24:56.873Z,2.83
2018-03-21T21:27:26.471Z,2.63
2018-03-21T21:29:56.030Z,2.93
2018-03-21T21:32:25.592Z,3.03
2018-03-21T21:34:55.163Z,2.83
2018-03-21T21:37:25.599Z,3.77
2018-03-21T21:39:55.116Z,4.37
2018-03-21T21:42:24.594Z,4.00
2018-03-21T21:44:54.118Z,3.17
2018-03-21T21:47:23.696Z,3.30
2018-03-21T21:49:53.450Z,2.80
2018-03-21T21:52:23.028Z,3.20
2018-03-21T21:54:52.527Z,3.27
2018-03-21T21:57:22.193Z,3.53
2018-03-21T21:59:51.729Z,3.30
2018-03-21T22:02:21.532Z,3.00
2018-03-21T22:04:51.307Z,3.60
2018-03-21T22:07:20.823Z,2.00
2018-03-21T22:09:50.356Z,2.70
2018-03-21T22:12:23.899Z,2.90
2018-03-21T22:14:53.472Z,2.93
2018-03-21T22:17:26.154Z,2.60
2018-03-21T22:19:55.714Z,2.40
2018-03-21T22:22:31.475Z,3.00
2018-03-21T22:25:01.248Z,1.63
2018-03-21T22:27:30.774Z,2.40
2018-03-21T22:30:00.431Z,2.10
2018-03-21T22:32:29.949Z,2.03
2018-03-21T22:35:13.323Z,2.20
2018-03-21T22:37:46.470Z,2.50
2018-03-21T22:40:16.027Z,8.50
2018-03-21T22:42:46.461Z,4.00
2018-03-21T22:45:15.979Z,2.80
2018-03-21T22:47:45.533Z,1.73
2018-03-21T22:50:15.024Z,5.10
2018-03-21T22:52:44.608Z,6.03
2018-03-21T22:55:14.647Z,3.27
2018-03-21T22:57:44.247Z,2.60
2018-03-21T23:00:13.793Z,2.70
2018-03-21T23:02:43.334Z,3.33
2018-03-21T23:05:12.915Z,3.30
2018-03-21T23:07:42.449Z,3.70
2018-03-21T23:10:12.022Z,5.40
2018-03-21T23:12:41.704Z,4.50
2018-03-21T23:15:11.234Z,3.90
2018-03-21T23:17:40.930Z,7.60
2018-03-21T23:20:10.446Z,5.00
2018-03-21T23:22:40.125Z,3.47
2018-03-21T23:25:09.779Z,3.67
2018-03-21T23:27:39.318Z,3.90
2018-03-21T23:30:08.882Z,3.67
2018-03-21T23:32:38.411Z,3.03
2018-03-21T23:35:08.162Z,3.00
2018-03-21T23:37:38.037Z,3.10
2018-03-21T23:40:08.119Z,3.90
2018-03-21T23:42:37.674Z,2.90
2018-03-21T23:45:07.228Z,3.00
2018-03-21T23:47:42.811Z,5.00
2018-03-21T23:50:12.359Z,2.80
2018-03-21T23:52:42.969Z,2.20
2018-03-21T23:55:12.500Z,2.30
2018-03-21T23:57:42.694Z,3.40
